createdAt,value
2019-01-04T00:01:36.141Z,102928.42
2019-01-04T00:04:04.773Z,102933.22
2019-01-04T00:06:33.232Z,102933.22
2019-01-04T00:09:01.734Z,102930.45
2019-01-04T00:11:30.436Z,102925.19
2019-01-04T00:13:58.944Z,102933.88
2019-01-04T00:16:27.487Z,102925.07
2019-01-04T00:18:55.990Z,102919.81
2019-01-04T00:21:24.547Z,102914.16
2019-01-04T00:23:53.116Z,102913.75
2019-01-04T00:26:21.649Z,102923.76
2019-01-04T00:28:50.182Z,102917.18
2019-01-04T00:31:18.741Z,102920.22
2019-01-04T00:33:47.224Z,102920.22
2019-01-04T00:36:15.780Z,102914.81
2019-01-04T00:38:44.530Z,102909.55
2019-01-04T00:41:13.014Z,102914.30
2019-01-04T00:43:41.480Z,102918.23
2019-01-04T00:46:10.390Z,102909.95
2019-01-04T00:48:38.875Z,102914.30
2019-01-04T00:51:07.468Z,102912.86
2019-01-04T00:53:35.994Z,102912.46
2019-01-04T00:56:43.164Z,102904.97
2019-01-04T00:59:51.892Z,102902.74
2019-01-04T01:02:59.118Z,102905.48
2019-01-04T01:06:06.292Z,102907.66
2019-01-04T01:09:13.580Z,102902.86
2019-01-04T01:12:22.051Z,102904.69
2019-01-04T01:15:29.286Z,102902.97
2019-01-04T01:21:37.728Z,102914.94
2019-01-04T01:24:45.215Z,102915.44
2019-01-04T01:27:52.334Z,102907.55
2019-01-04T01:31:01.146Z,102911.00
2019-01-04T01:34:08.343Z,102910.94
2019-01-04T01:37:15.572Z,102906.53
2019-01-04T01:40:22.795Z,102913.51
2019-01-04T01:43:31.267Z,102910.02
2019-01-04T01:46:39.746Z,102905.88
2019-01-04T01:49:48.274Z,102899.23
2019-01-04T01:52:37.702Z,102895.30
2019-01-04T01:55:06.229Z,102889.72
2019-01-04T01:57:34.816Z,102891.67
2019-01-04T02:00:03.389Z,102888.53
2019-01-04T02:02:32.238Z,102884.58
2019-01-04T02:05:00.787Z,102878.45
2019-01-04T02:07:29.335Z,102877.53
2019-01-04T02:09:57.755Z,102878.79
2019-01-04T02:12:26.793Z,102874.79
2019-01-04T02:14:55.363Z,102882.47
2019-01-04T02:17:23.910Z,102881.16
2019-01-04T02:19:52.387Z,102879.84
2019-01-04T02:22:20.922Z,102872.86
2019-01-04T02:24:49.714Z,102863.35
2019-01-04T02:27:18.239Z,102861.70
2019-01-04T02:29:46.813Z,102853.67
2019-01-04T02:32:15.269Z,102852.64
2019-01-04T02:34:43.773Z,102849.92
2019-01-04T02:37:52.479Z,102851.58
2019-01-04T02:40:21.008Z,102849.75
2019-01-04T02:42:49.522Z,102851.58
2019-01-04T02:45:18.337Z,102846.66
2019-01-04T02:47:46.961Z,102830.94
2019-01-04T02:50:15.454Z,102830.14
2019-01-04T02:52:44.288Z,102820.88
2019-01-04T02:55:13.287Z,102817.33
2019-01-04T02:57:41.750Z,102815.28
2019-01-04T03:00:10.256Z,102814.77
2019-01-04T03:02:38.783Z,102810.11
2019-01-04T03:05:07.287Z,102814.38
2019-01-04T03:07:35.859Z,102817.80
2019-01-04T03:15:54.032Z,102810.77
2019-01-04T03:18:22.530Z,102801.62
2019-01-04T03:20:51.569Z,102790.44
2019-01-04T03:23:20.055Z,102794.27
2019-01-04T03:25:48.829Z,102790.20
2019-01-04T03:28:17.407Z,102781.52
2019-01-04T03:30:45.844Z,102773.48
2019-01-04T03:33:14.529Z,102769.42
2019-01-04T03:35:43.123Z,102772.56
2019-01-04T03:38:11.657Z,102761.87
2019-01-04T03:40:40.196Z,102755.63
2019-01-04T03:43:08.692Z,102750.48
2019-01-04T03:45:37.215Z,102746.91
2019-01-04T03:48:05.726Z,102741.16
2019-01-04T03:50:34.205Z,102736.19
2019-01-04T03:53:02.709Z,102728.83
2019-01-04T03:55:31.204Z,102721.06
2019-01-04T04:00:38.333Z,102716.54
2019-01-04T04:03:06.870Z,102709.30
2019-01-04T04:05:35.412Z,102709.05
2019-01-04T04:08:03.909Z,102715.95
2019-01-04T04:10:32.524Z,102709.51
2019-01-04T04:13:00.987Z,102707.28
2019-01-04T04:15:29.951Z,102701.75
2019-01-04T04:17:58.404Z,102701.23
2019-01-04T04:20:26.872Z,102695.73
2019-01-04T04:22:55.278Z,102690.47
2019-01-04T04:25:24.298Z,102693.04
2019-01-04T04:30:41.797Z,102684.42
2019-01-04T04:33:10.234Z,102685.46
2019-01-04T04:35:38.777Z,102689.67
2019-01-04T04:38:07.262Z,102690.45
2019-01-04T04:40:36.079Z,102689.88
2019-01-04T04:43:04.643Z,102698.14
2019-01-04T04:45:33.226Z,102695.78
2019-01-04T04:48:01.684Z,102684.54
2019-01-04T04:50:30.156Z,102670.95
2019-01-04T04:52:58.716Z,102676.81
2019-01-04T04:55:27.587Z,102672.36
2019-01-04T04:57:56.078Z,102668.31
2019-01-04T05:00:24.574Z,102669.20
2019-01-04T05:02:53.099Z,102666.02
2019-01-04T05:05:21.926Z,102671.22
2019-01-04T05:07:50.716Z,102670.52
2019-01-04T05:10:19.175Z,102664.71
2019-01-04T05:12:48.091Z,102660.13
2019-01-04T05:15:16.608Z,102663.83
2019-01-04T05:17:45.119Z,102666.33
2019-01-04T05:20:13.635Z,102660.06
2019-01-04T05:22:42.090Z,102655.33
2019-01-04T05:25:10.917Z,102657.37
2019-01-04T05:27:39.430Z,102655.00
2019-01-04T05:30:08.014Z,102660.92
2019-01-04T05:32:36.454Z,102657.78
2019-01-04T05:37:59.639Z,102658.42
2019-01-04T05:40:28.213Z,102648.43
2019-01-04T05:43:10.817Z,102639.11
2019-01-04T05:45:46.170Z,102630.31
2019-01-04T05:48:14.726Z,102627.02
2019-01-04T05:50:43.272Z,102619.59
2019-01-04T05:53:11.818Z,102620.05
2019-01-04T05:55:40.316Z,102623.81
2019-01-04T05:58:08.878Z,102604.72
2019-01-04T06:00:37.340Z,102610.34
2019-01-04T06:03:05.920Z,102604.84
2019-01-04T06:05:34.648Z,102605.87
2019-01-04T06:08:03.066Z,102608.84
2019-01-04T06:10:31.505Z,102603.13
2019-01-04T06:13:00.001Z,102603.77
2019-01-04T06:15:28.567Z,102608.61
2019-01-04T06:17:57.136Z,102609.13
2019-01-04T06:20:25.596Z,102599.81
2019-01-04T06:22:54.238Z,102590.33
2019-01-04T06:25:22.693Z,102587.42
2019-01-04T06:27:51.173Z,102586.56
2019-01-04T06:30:19.720Z,102577.83
2019-01-04T06:32:48.185Z,102575.86
2019-01-04T06:35:16.687Z,102580.72
2019-01-04T06:37:45.140Z,102578.84
2019-01-04T06:40:13.729Z,102584.16
2019-01-04T06:42:42.161Z,102580.42
2019-01-04T06:45:10.656Z,102571.06
2019-01-04T06:47:39.179Z,102572.02
2019-01-04T06:50:47.627Z,102575.17
2019-01-04T06:53:16.098Z,102577.27
2019-01-04T06:56:24.605Z,102569.81
2019-01-04T06:58:53.128Z,102568.45
2019-01-04T07:01:21.762Z,102560.63
2019-01-04T07:03:50.144Z,102561.65
2019-01-04T07:06:18.717Z,102556.80
2019-01-04T07:08:47.236Z,102552.39
2019-01-04T07:11:15.726Z,102553.44
2019-01-04T07:13:44.581Z,102562.28
2019-01-04T07:16:13.096Z,102554.45
2019-01-04T07:18:41.562Z,102554.44
2019-01-04T07:21:10.106Z,102551.70
2019-01-04T07:23:38.858Z,102544.84
2019-01-04T07:26:07.700Z,102539.81
2019-01-04T07:28:36.378Z,102530.58
2019-01-04T07:31:04.965Z,102530.02
2019-01-04T07:33:33.540Z,102525.97
2019-01-04T07:36:02.350Z,102527.28
2019-01-04T07:38:30.891Z,102530.20
2019-01-04T07:41:00.924Z,102524.95
2019-01-04T07:46:05.204Z,102521.48
2019-01-04T07:48:33.665Z,102525.98
2019-01-04T07:51:02.181Z,102525.91
2019-01-04T07:53:31.040Z,102525.75
2019-01-04T07:56:00.620Z,102517.47
2019-01-04T07:58:29.990Z,102522.44
2019-01-04T08:00:58.622Z,102517.57
2019-01-04T08:03:27.124Z,102506.77
2019-01-04T08:05:56.066Z,102499.86
2019-01-04T08:08:24.497Z,102493.05
2019-01-04T08:10:53.093Z,102493.38
2019-01-04T08:13:21.509Z,102484.19
2019-01-04T08:15:50.056Z,102482.56
2019-01-04T08:18:18.613Z,102474.15
2019-01-04T08:20:47.124Z,102474.76
2019-01-04T08:23:15.688Z,102470.34
2019-01-04T08:25:44.216Z,102465.87
2019-01-04T08:28:13.079Z,102468.43
2019-01-04T08:30:41.757Z,102471.13
2019-01-04T08:33:10.344Z,102477.26
2019-01-04T08:35:38.897Z,102463.86
2019-01-04T08:38:07.385Z,102467.13
2019-01-04T08:40:35.916Z,102458.84
2019-01-04T08:43:04.499Z,102465.56
2019-01-04T08:45:33.390Z,102460.64
2019-01-04T08:48:01.920Z,102453.91
2019-01-04T08:50:30.498Z,102448.49
2019-01-04T08:52:59.081Z,102453.77
2019-01-04T08:55:27.672Z,102448.25
2019-01-04T08:57:56.211Z,102452.05
2019-01-04T09:00:25.017Z,102462.04
2019-01-04T09:02:53.575Z,102458.41
2019-01-04T09:05:22.132Z,102453.61
2019-01-04T09:07:50.661Z,102435.20
2019-01-04T09:10:19.341Z,102426.00
2019-01-04T09:12:48.025Z,102423.05
2019-01-04T09:15:16.685Z,102412.92
2019-01-04T09:17:45.152Z,102407.66
2019-01-04T09:20:13.792Z,102407.02
2019-01-04T09:22:42.314Z,102402.59
2019-01-04T09:25:10.877Z,102399.80
2019-01-04T09:27:39.403Z,102400.50
2019-01-04T09:30:47.881Z,102400.25
2019-01-04T09:33:16.418Z,102397.16
2019-01-04T09:35:44.925Z,102396.02
2019-01-04T09:38:13.583Z,102393.06
2019-01-04T09:40:42.053Z,102382.92
2019-01-04T09:43:10.679Z,102378.31
2019-01-04T09:45:39.304Z,102368.28
2019-01-04T09:48:07.832Z,102364.59
2019-01-04T09:50:36.385Z,102356.83
2019-01-04T09:53:04.985Z,102350.55
2019-01-04T09:55:33.575Z,102348.77
2019-01-04T09:58:02.386Z,102338.16
2019-01-04T10:00:30.869Z,102330.86
2019-01-04T10:02:59.571Z,102329.59
2019-01-04T10:05:28.356Z,102331.98
2019-01-04T10:07:56.989Z,102320.09
2019-01-04T10:10:25.452Z,102321.59
2019-01-04T10:12:54.152Z,102312.84
2019-01-04T10:15:22.764Z,102306.47
2019-01-04T10:17:51.327Z,102302.57
2019-01-04T10:20:19.968Z,102305.63
2019-01-04T10:22:48.685Z,102301.14
2019-01-04T10:25:17.241Z,102284.03
2019-01-04T10:27:45.820Z,102282.52
2019-01-04T10:30:54.305Z,102282.55
2019-01-04T10:33:22.880Z,102269.04
2019-01-04T10:35:51.498Z,102262.34
2019-01-04T10:38:19.864Z,102256.77
2019-01-04T10:40:48.873Z,102239.81
2019-01-04T10:43:17.502Z,102242.21
2019-01-04T10:45:46.085Z,102228.70
2019-01-04T10:48:14.649Z,102224.36
2019-01-04T10:50:43.306Z,102209.91
2019-01-04T10:53:12.100Z,102200.58
2019-01-04T10:55:40.974Z,102190.46
2019-01-04T10:58:09.529Z,102176.83
2019-01-04T11:00:38.171Z,102172.19
2019-01-04T11:03:06.875Z,102165.83
2019-01-04T11:05:35.546Z,102162.61
2019-01-04T11:08:04.049Z,102163.87
2019-01-04T11:10:32.698Z,102151.93
2019-01-04T11:13:01.452Z,102136.89
2019-01-04T11:15:31.338Z,102130.47
2019-01-04T11:17:59.955Z,102129.33
2019-01-04T11:20:47.870Z,102123.51
2019-01-04T11:29:57.479Z,102116.47
2019-01-04T11:33:06.084Z,102104.71
2019-01-04T11:36:13.537Z,102101.89
2019-01-04T11:39:22.022Z,102090.61
2019-01-04T11:42:30.663Z,102073.48
2019-01-04T11:45:37.933Z,102061.07
2019-01-04T11:48:46.623Z,102043.00
2019-01-04T11:51:27.843Z,102033.70
2019-01-04T11:53:56.325Z,102025.50
2019-01-04T11:56:25.013Z,102019.13
2019-01-04T11:58:53.809Z,102011.10
2019-01-04T12:01:22.394Z,102004.42
2019-01-04T12:04:10.313Z,102005.19
2019-01-04T12:06:39.030Z,101999.61
2019-01-04T12:09:47.534Z,101997.08
2019-01-04T12:12:16.111Z,101988.43
2019-01-04T12:14:44.708Z,101987.58
2019-01-04T12:17:14.162Z,101997.27
2019-01-04T12:19:42.929Z,101996.88
2019-01-04T12:22:11.662Z,102001.97
2019-01-04T12:24:40.308Z,102006.85
2019-01-04T12:27:08.964Z,102013.42
2019-01-04T12:29:37.618Z,102018.71
2019-01-04T12:32:06.149Z,102018.03
2019-01-04T12:34:34.680Z,102024.53
2019-01-04T12:37:23.955Z,102027.08
2019-01-04T12:39:52.565Z,102024.73
2019-01-04T12:42:21.202Z,102024.24
2019-01-04T12:44:49.844Z,102021.47
2019-01-04T12:47:18.498Z,102013.94
2019-01-04T12:49:47.190Z,102019.23
2019-01-04T12:52:15.823Z,102022.63
2019-01-04T12:54:44.629Z,102014.76
2019-01-04T12:57:13.068Z,102011.66
2019-01-04T12:59:41.765Z,102009.19
2019-01-04T13:02:10.228Z,102012.13
2019-01-04T13:04:38.949Z,102009.66
2019-01-04T13:10:15.682Z,102018.88
2019-01-04T13:12:44.199Z,102014.20
2019-01-04T13:15:12.762Z,102009.64
2019-01-04T13:17:41.362Z,102014.27
2019-01-04T13:20:09.899Z,102006.28
2019-01-04T13:22:38.537Z,102009.38
2019-01-04T13:25:46.978Z,102007.94
2019-01-04T13:28:15.627Z,102007.87
2019-01-04T13:30:44.223Z,101995.36
2019-01-04T13:33:12.770Z,101981.58
2019-01-04T13:35:41.528Z,101984.61
2019-01-04T13:38:10.141Z,101986.13
2019-01-04T13:40:38.736Z,101979.68
2019-01-04T13:43:07.391Z,101967.84
2019-01-04T13:45:36.160Z,101972.95
2019-01-04T13:48:04.759Z,101974.83
2019-01-04T13:50:33.420Z,101972.95
2019-01-04T13:53:02.080Z,101968.41
2019-01-04T13:55:30.594Z,101958.54
2019-01-04T13:57:59.087Z,101967.08
2019-01-04T14:00:27.605Z,101964.09
2019-01-04T14:02:56.080Z,101966.88
2019-01-04T14:05:24.592Z,101950.92
2019-01-04T14:07:53.257Z,101959.06
2019-01-04T14:10:21.722Z,101953.31
2019-01-04T14:12:50.254Z,101937.50
2019-01-04T14:15:18.814Z,101930.91
2019-01-04T14:17:47.494Z,101931.00
2019-01-04T14:20:16.299Z,101925.63
2019-01-04T14:22:44.864Z,101928.93
2019-01-04T14:25:13.437Z,101931.59
2019-01-04T14:27:42.040Z,101937.97
2019-01-04T14:30:50.529Z,101949.55
2019-01-04T14:33:19.052Z,101950.84
2019-01-04T14:35:47.597Z,101933.36
2019-01-04T14:38:16.125Z,101932.38
2019-01-04T14:40:44.698Z,101939.45
2019-01-04T14:43:13.260Z,101946.13
2019-01-04T14:45:41.856Z,101949.69
2019-01-04T14:48:10.415Z,101952.60
2019-01-04T14:50:39.209Z,101944.78
2019-01-04T14:53:07.746Z,101944.97
2019-01-04T14:55:36.322Z,101930.84
2019-01-04T14:58:04.919Z,101914.93
2019-01-04T15:00:33.774Z,101906.92
2019-01-04T15:03:02.389Z,101897.22
2019-01-04T15:05:30.901Z,101896.38
2019-01-04T15:07:59.420Z,101898.07
2019-01-04T15:10:27.966Z,101889.42
2019-01-04T15:12:56.945Z,101894.13
2019-01-04T15:15:25.809Z,101901.16
2019-01-04T15:17:54.174Z,101896.20
2019-01-04T15:20:22.649Z,101897.99
2019-01-04T15:22:51.107Z,101897.77
2019-01-04T15:25:19.581Z,101903.00
2019-01-04T15:27:48.149Z,101905.30
2019-01-04T15:30:16.663Z,101897.85
2019-01-04T15:32:45.222Z,101888.95
2019-01-04T15:35:13.821Z,101878.78
2019-01-04T15:37:42.393Z,101876.18
2019-01-04T15:40:10.848Z,101881.13
2019-01-04T15:42:39.459Z,101891.64
2019-01-04T15:45:47.906Z,101882.41
2019-01-04T15:48:16.413Z,101887.68
2019-01-04T15:50:44.999Z,101890.47
2019-01-04T15:53:13.436Z,101880.33
2019-01-04T15:55:41.942Z,101887.91
2019-01-04T15:58:10.398Z,101895.74
2019-01-04T16:00:39.039Z,101891.78
2019-01-04T16:03:07.755Z,101900.83
2019-01-04T16:05:36.300Z,101893.85
2019-01-04T16:08:04.833Z,101906.05
2019-01-04T16:10:33.370Z,101894.70
2019-01-04T16:13:01.920Z,101887.90
2019-01-04T16:15:30.603Z,101887.09
2019-01-04T16:17:59.223Z,101890.95
2019-01-04T16:20:28.214Z,101886.11
2019-01-04T16:22:56.709Z,101879.03
2019-01-04T16:25:25.319Z,101881.30
2019-01-04T16:27:53.734Z,101885.45
2019-01-04T16:30:22.275Z,101888.98
2019-01-04T16:32:50.744Z,101890.54
2019-01-04T16:35:40.006Z,101888.98
2019-01-04T16:38:08.899Z,101882.25
2019-01-04T16:40:37.481Z,101877.86
2019-01-04T16:43:06.070Z,101878.03
2019-01-04T16:48:23.730Z,101878.74
2019-01-04T16:50:52.200Z,101873.22
2019-01-04T16:53:20.751Z,101859.31
2019-01-04T16:55:49.213Z,101862.91
2019-01-04T16:58:17.665Z,101868.05
2019-01-04T17:00:46.414Z,101862.23
2019-01-04T17:03:14.927Z,101869.81
2019-01-04T17:05:43.396Z,101871.41
2019-01-04T17:08:11.861Z,101873.20
2019-01-04T17:10:40.776Z,101869.50
2019-01-04T17:13:09.278Z,101877.13
2019-01-04T17:15:38.040Z,101875.06
2019-01-04T17:18:06.581Z,101879.12
2019-01-04T17:20:35.277Z,101881.66
2019-01-04T17:23:03.815Z,101877.73
2019-01-04T17:25:32.321Z,101878.48
2019-01-04T17:28:00.827Z,101882.64
2019-01-04T17:30:29.330Z,101886.61
2019-01-04T17:35:31.395Z,101884.20
2019-01-04T17:37:59.878Z,101891.11
2019-01-04T17:40:28.336Z,101900.59
2019-01-04T17:42:56.897Z,101899.23
2019-01-04T17:45:25.440Z,101903.94
2019-01-04T17:47:53.997Z,101902.15
2019-01-04T17:50:22.555Z,101899.65
2019-01-04T17:52:51.021Z,101892.57
2019-01-04T17:55:19.588Z,101896.39
2019-01-04T17:57:48.096Z,101894.13
2019-01-04T18:00:17.076Z,101892.44
2019-01-04T18:02:45.637Z,101889.05
2019-01-04T18:05:14.233Z,101892.73
2019-01-04T18:07:42.811Z,101894.91
2019-01-04T18:10:11.717Z,101897.81
2019-01-04T18:12:40.722Z,101900.66
2019-01-04T18:15:09.262Z,101901.07
2019-01-04T18:17:37.812Z,101899.98
2019-01-04T18:20:46.282Z,101901.30
2019-01-04T18:23:15.195Z,101902.82
2019-01-04T18:25:43.665Z,101899.98
2019-01-04T18:28:12.151Z,101902.72
2019-01-04T18:30:40.651Z,101898.02
2019-01-04T18:33:09.015Z,101894.33
2019-01-04T18:35:37.505Z,101897.86
2019-01-04T18:38:06.057Z,101892.41
2019-01-04T18:40:34.575Z,101880.15
2019-01-04T18:43:03.389Z,101883.16
2019-01-04T18:45:32.153Z,101884.11
2019-01-04T18:48:00.603Z,101897.31
2019-01-04T18:53:08.271Z,101878.73
2019-01-04T18:55:36.737Z,101880.73
2019-01-04T18:58:05.238Z,101889.02
2019-01-04T19:00:33.773Z,101872.12
2019-01-04T19:03:02.207Z,101877.71
2019-01-04T19:05:30.750Z,101879.77
2019-01-04T19:07:59.350Z,101874.83
2019-01-04T19:10:27.931Z,101879.09
2019-01-04T19:12:56.632Z,101875.95
2019-01-04T19:15:25.162Z,101890.00
2019-01-04T19:17:53.715Z,101879.91
2019-01-04T19:20:22.233Z,101882.83
2019-01-04T19:22:51.167Z,101877.06
2019-01-04T19:28:08.847Z,101873.58
2019-01-04T19:30:37.337Z,101862.00
2019-01-04T19:33:05.934Z,101860.06
2019-01-04T19:35:34.483Z,101856.69
2019-01-04T19:38:03.099Z,101853.27
2019-01-04T19:40:31.742Z,101846.55
2019-01-04T19:43:19.767Z,101846.32
2019-01-04T19:46:07.606Z,101844.97
2019-01-04T19:48:36.147Z,101837.63
2019-01-04T19:51:05.191Z,101838.53
2019-01-04T19:53:40.931Z,101832.71
2019-01-04T19:56:09.363Z,101819.74
2019-01-04T19:58:37.854Z,101821.64
2019-01-04T20:01:26.866Z,101814.46
2019-01-04T20:03:55.392Z,101810.57
2019-01-04T20:07:04.329Z,101802.55
2019-01-04T20:10:30.651Z,101801.23
2019-01-04T20:13:56.923Z,101794.12
2019-01-04T20:17:05.396Z,101793.08
2019-01-04T20:20:13.874Z,101789.35
2019-01-04T20:23:01.558Z,101774.42
2019-01-04T20:25:49.240Z,101778.28
2019-01-04T20:28:37.092Z,101771.11
2019-01-04T20:31:24.834Z,101764.23
2019-01-04T20:34:12.562Z,101765.83
2019-01-04T20:37:00.254Z,101759.36
2019-01-04T20:42:37.180Z,101755.33
2019-01-04T20:45:45.613Z,101746.30
2019-01-04T20:51:12.260Z,101742.42
2019-01-04T20:56:49.004Z,101736.68
2019-01-04T20:59:36.651Z,101732.41
2019-01-04T21:02:24.539Z,101733.75
2019-01-04T21:10:36.590Z,101717.70
2019-01-04T21:13:24.271Z,101727.83
2019-01-04T21:16:12.078Z,101720.48
2019-01-04T21:18:59.643Z,101716.78
2019-01-04T21:21:47.268Z,101726.38
2019-01-04T21:27:24.041Z,101713.51
2019-01-04T21:30:11.903Z,101714.25
2019-01-04T21:35:35.354Z,101717.16
2019-01-04T21:38:23.037Z,101717.05
2019-01-04T21:43:59.779Z,101706.48
2019-01-04T21:46:47.441Z,101698.20
2019-01-04T21:49:35.091Z,101705.66
2019-01-04T21:52:22.744Z,101695.34
2019-01-04T21:55:10.531Z,101699.20
2019-01-04T21:57:58.247Z,101707.35
2019-01-04T22:00:46.219Z,101694.39
2019-01-04T22:03:53.230Z,101700.52
2019-01-04T22:06:40.940Z,101689.22
2019-01-04T22:12:36.805Z,101667.22
2019-01-04T22:15:45.258Z,101673.24
2019-01-04T22:21:11.925Z,101666.86
2019-01-04T22:23:59.531Z,101668.70
2019-01-04T22:26:47.259Z,101666.64
2019-01-04T22:32:24.091Z,101663.41
2019-01-04T22:35:11.745Z,101653.42
2019-01-04T22:40:34.994Z,101634.19
2019-01-04T22:43:22.687Z,101637.20
2019-01-04T22:46:10.432Z,101634.33
2019-01-04T22:48:57.987Z,101624.34
2019-01-04T22:57:13.345Z,101624.59
2019-01-04T23:02:50.070Z,101616.30
2019-01-04T23:05:37.762Z,101614.98
2019-01-04T23:08:25.466Z,101614.50
2019-01-04T23:11:13.097Z,101608.73
2019-01-04T23:14:01.292Z,101590.82
2019-01-04T23:16:48.891Z,101602.27
2019-01-04T23:19:36.596Z,101591.91
2019-01-04T23:25:32.612Z,101580.62
2019-01-04T23:28:20.138Z,101575.20
2019-01-04T23:31:08.125Z,101562.94
2019-01-04T23:33:56.026Z,101556.95
2019-01-04T23:36:43.745Z,101553.70
2019-01-04T23:39:31.346Z,101548.17
2019-01-04T23:42:18.957Z,101539.88
2019-01-04T23:45:06.634Z,101533.15
2019-01-04T23:47:54.231Z,101529.30
2019-01-04T23:50:41.837Z,101525.81
2019-01-04T23:53:29.484Z,101525.33
2019-01-04T23:56:17.006Z,101519.81
2019-01-04T23:59:04.725Z,101509.60
